createdAt,value
2023-03-02T00:00:02.247Z,32.25
2023-03-02T00:02:56.516Z,37.05
2023-03-02T00:05:29.156Z,33.40
2023-03-02T00:08:01.197Z,35.25
2023-03-02T00:10:32.752Z,34.75
2023-03-02T00:13:04.676Z,33.78
2023-03-02T00:15:35.665Z,34.85
2023-03-02T00:18:06.959Z,31.70
2023-03-02T00:20:38.875Z,32.33
2023-03-02T00:23:10.023Z,33.53
2023-03-02T00:25:41.538Z,33.45
2023-03-02T00:28:12.524Z,34.43
2023-03-02T00:30:43.580Z,35.15
2023-03-02T00:33:14.622Z,31.80
2023-03-02T00:35:45.821Z,33.60
2023-03-02T00:38:17.104Z,35.50
2023-03-02T00:40:49.335Z,32.60
2023-03-02T00:43:22.957Z,29.90
2023-03-02T00:45:53.966Z,31.10
2023-03-02T00:48:25.004Z,32.20
2023-03-02T00:50:56.405Z,30.50
2023-03-02T00:53:27.468Z,31.10
2023-03-02T00:55:58.560Z,29.45
2023-03-02T00:58:30.264Z,36.10
2023-03-02T01:01:06.380Z,34.83
2023-03-02T01:03:38.648Z,32.65
2023-03-02T01:06:15.428Z,32.75
2023-03-02T01:08:47.035Z,31.10
2023-03-02T01:11:19.245Z,32.77
2023-03-02T01:16:20.067Z,31.13
2023-03-02T01:18:51.111Z,30.47
2023-03-02T01:21:22.435Z,32.40
2023-03-02T01:23:54.090Z,37.35
2023-03-02T01:26:25.252Z,33.95
2023-03-02T01:28:56.659Z,32.43
2023-03-02T01:31:28.346Z,30.45
2023-03-02T01:33:59.692Z,33.70
2023-03-02T01:36:31.260Z,39.00
2023-03-02T01:39:02.551Z,31.00
2023-03-02T01:41:34.221Z,31.33
2023-03-02T01:44:05.366Z,35.78
2023-03-02T01:46:36.518Z,36.25
2023-03-02T01:49:12.267Z,33.80
2023-03-02T01:51:50.863Z,33.73
2023-03-02T01:54:24.158Z,35.70
2023-03-02T01:57:03.993Z,33.00
2023-03-02T01:59:37.140Z,35.05
2023-03-02T02:02:09.867Z,33.80
2023-03-02T02:04:43.458Z,37.60
2023-03-02T02:07:14.604Z,34.80
2023-03-02T02:09:48.424Z,33.10
2023-03-02T02:12:21.237Z,33.05
2023-03-02T02:14:52.356Z,35.75
2023-03-02T02:17:23.659Z,33.00
2023-03-02T02:20:09.256Z,34.55
2023-03-02T02:22:55.445Z,31.83
2023-03-02T02:25:34.982Z,33.15
2023-03-02T02:28:08.660Z,33.20
2023-03-02T02:30:41.266Z,30.50
2023-03-02T02:33:15.338Z,30.60
2023-03-02T02:35:47.271Z,29.77
2023-03-02T02:38:20.602Z,30.70
2023-03-02T02:40:53.381Z,28.50
2023-03-02T02:43:29.355Z,29.60
2023-03-02T02:46:01.371Z,31.70
2023-03-02T02:48:33.503Z,27.58
2023-03-02T02:51:04.641Z,27.73
2023-03-02T02:53:39.069Z,27.40
2023-03-02T02:56:11.891Z,29.70
2023-03-02T02:58:46.053Z,30.65
2023-03-02T03:01:18.385Z,28.95
2023-03-02T03:06:23.491Z,29.65
2023-03-02T03:08:57.153Z,32.77
2023-03-02T03:11:35.414Z,28.40
2023-03-02T03:14:08.988Z,29.27
2023-03-02T03:16:42.372Z,31.80
2023-03-02T03:19:17.283Z,31.00
2023-03-02T03:21:50.604Z,32.50
2023-03-02T03:24:22.147Z,33.87
2023-03-02T03:26:54.931Z,29.98
2023-03-02T03:29:27.679Z,33.10
2023-03-02T03:32:02.777Z,32.63
2023-03-02T03:34:41.146Z,33.30
2023-03-02T03:37:21.234Z,33.60
2023-03-02T03:42:22.693Z,34.40
2023-03-02T03:44:54.269Z,29.92
2023-03-02T03:47:26.147Z,33.83
2023-03-02T03:49:57.144Z,31.87
2023-03-02T03:52:32.063Z,34.43
2023-03-02T03:55:16.708Z,34.30
2023-03-02T03:57:48.225Z,33.98
2023-03-02T04:00:20.108Z,34.15
2023-03-02T04:02:54.299Z,33.20
2023-03-02T04:05:26.482Z,36.42
2023-03-02T04:08:02.583Z,33.80
2023-03-02T04:10:34.989Z,33.65
2023-03-02T04:13:06.475Z,33.10
2023-03-02T04:15:38.485Z,35.90
2023-03-02T04:18:09.870Z,37.05
2023-03-02T04:20:41.701Z,37.95
2023-03-02T04:23:13.248Z,32.90
2023-03-02T04:25:44.464Z,36.90
2023-03-02T04:28:19.013Z,35.47
2023-03-02T04:30:51.926Z,35.30
2023-03-02T04:33:22.965Z,36.00
2023-03-02T04:35:54.706Z,34.30
2023-03-02T04:38:29.680Z,38.63
2023-03-02T04:41:01.489Z,36.10
2023-03-02T04:43:32.699Z,40.40
2023-03-02T04:46:03.675Z,36.60
2023-03-02T04:48:35.052Z,41.50
2023-03-02T04:51:06.327Z,39.95
2023-03-02T04:53:37.426Z,38.05
2023-03-02T04:56:08.881Z,41.05
2023-03-02T04:58:40.190Z,39.67
2023-03-02T05:01:12.499Z,38.23
2023-03-02T05:06:13.239Z,36.25
2023-03-02T05:08:44.170Z,38.90
2023-03-02T05:11:22.718Z,41.70
2023-03-02T05:13:54.971Z,40.33
2023-03-02T05:16:26.542Z,44.70
2023-03-02T05:18:57.866Z,37.00
2023-03-02T05:21:28.942Z,38.40
2023-03-02T05:24:00.218Z,42.40
2023-03-02T05:26:33.570Z,35.65
2023-03-02T05:29:05.201Z,36.10
2023-03-02T05:31:38.125Z,38.80
2023-03-02T05:34:11.210Z,38.10
2023-03-02T05:36:42.341Z,37.07
2023-03-02T05:39:13.418Z,38.33
2023-03-02T05:41:44.417Z,36.70
2023-03-02T05:44:15.442Z,36.50
2023-03-02T05:46:46.721Z,38.60
2023-03-02T05:49:17.834Z,42.30
2023-03-02T05:51:48.815Z,36.63
2023-03-02T05:54:19.897Z,38.20
2023-03-02T05:56:52.501Z,41.35
2023-03-02T05:59:23.735Z,38.20
2023-03-02T06:01:59.065Z,34.85
2023-03-02T06:04:30.244Z,36.55
2023-03-02T06:07:01.305Z,37.80
2023-03-02T06:09:32.271Z,33.90
2023-03-02T06:12:04.943Z,36.40
2023-03-02T06:14:36.928Z,35.33
2023-03-02T06:17:07.986Z,36.08
2023-03-02T06:19:39.136Z,42.30
2023-03-02T06:22:10.351Z,37.00
2023-03-02T06:24:41.490Z,35.40
2023-03-02T06:27:13.485Z,33.77
2023-03-02T06:29:44.653Z,36.33
2023-03-02T06:32:16.484Z,37.13
2023-03-02T06:34:48.333Z,36.70
2023-03-02T06:37:21.183Z,35.85
2023-03-02T06:39:52.328Z,37.43
2023-03-02T06:42:23.413Z,36.00
2023-03-02T06:44:55.434Z,39.85
2023-03-02T06:47:26.560Z,32.88
2023-03-02T06:49:58.027Z,35.53
2023-03-02T06:52:29.196Z,32.95
2023-03-02T06:55:00.305Z,36.73
2023-03-02T06:57:34.361Z,34.13
2023-03-02T07:00:10.434Z,30.10
2023-03-02T07:02:41.560Z,33.10
2023-03-02T07:05:12.818Z,30.35
2023-03-02T07:07:43.972Z,30.10
2023-03-02T07:10:15.553Z,32.50
2023-03-02T07:12:46.788Z,35.20
2023-03-02T07:15:18.022Z,28.87
2023-03-02T07:17:49.411Z,32.73
2023-03-02T07:20:20.678Z,29.50
2023-03-02T07:22:51.641Z,31.80
2023-03-02T07:25:22.635Z,31.65
2023-03-02T07:27:53.742Z,30.95
2023-03-02T07:30:25.044Z,31.13
2023-03-02T07:32:56.015Z,32.10
2023-03-02T07:35:27.202Z,32.90
2023-03-02T07:37:58.143Z,33.30
2023-03-02T07:40:29.113Z,31.07
2023-03-02T07:43:00.297Z,30.30
2023-03-02T07:45:31.533Z,30.55
2023-03-02T07:48:02.651Z,31.85
2023-03-02T07:50:34.055Z,29.13
2023-03-02T07:53:05.274Z,28.27
2023-03-02T07:55:36.347Z,31.50
2023-03-02T07:58:07.508Z,30.45
2023-03-02T08:00:42.364Z,28.45
2023-03-02T08:03:13.842Z,31.45
2023-03-02T08:05:44.862Z,29.80
2023-03-02T08:08:15.905Z,30.05
2023-03-02T08:10:47.074Z,29.95
2023-03-02T08:13:18.051Z,29.60
2023-03-02T08:15:49.178Z,27.05
2023-03-02T08:18:20.197Z,32.20
2023-03-02T08:20:51.192Z,27.90
2023-03-02T08:23:22.380Z,29.30
2023-03-02T08:25:53.583Z,29.00
2023-03-02T08:28:24.891Z,29.55
2023-03-02T08:33:28.049Z,28.15
2023-03-02T08:36:00.257Z,27.75
2023-03-02T08:41:00.726Z,26.30
2023-03-02T08:43:31.662Z,28.95
2023-03-02T08:46:03.282Z,28.85
2023-03-02T08:48:34.472Z,33.40
2023-03-02T08:51:07.304Z,29.93
2023-03-02T08:53:39.625Z,28.85
2023-03-02T08:58:40.053Z,31.40
2023-03-02T09:01:16.130Z,32.60
2023-03-02T09:03:47.085Z,31.40
2023-03-02T09:06:18.162Z,33.45
2023-03-02T09:08:49.310Z,30.95
2023-03-02T09:11:20.366Z,32.35
2023-03-02T09:13:51.528Z,34.85
2023-03-02T09:16:24.328Z,32.03
2023-03-02T09:18:56.206Z,31.15
2023-03-02T09:21:27.686Z,32.15
2023-03-02T09:23:59.442Z,32.30
2023-03-02T09:26:30.411Z,35.25
2023-03-02T09:29:01.676Z,28.90
2023-03-02T09:31:33.327Z,33.07
2023-03-02T09:34:05.482Z,33.53
2023-03-02T09:36:36.766Z,30.30
2023-03-02T09:39:12.631Z,31.67
2023-03-02T09:41:57.105Z,29.07
2023-03-02T09:44:42.097Z,30.60
2023-03-02T09:47:33.469Z,29.70
2023-03-02T09:50:13.167Z,30.55
2023-03-02T09:52:49.726Z,30.30
2023-03-02T09:55:23.873Z,30.30
2023-03-02T09:57:56.468Z,27.90
2023-03-02T10:00:29.600Z,29.75
2023-03-02T10:03:16.779Z,28.90
2023-03-02T10:05:52.546Z,31.50
2023-03-02T10:08:24.689Z,29.75
2023-03-02T10:11:00.269Z,29.12
2023-03-02T10:13:34.009Z,29.10
2023-03-02T10:16:11.914Z,31.65
2023-03-02T10:18:45.512Z,29.57
2023-03-02T10:21:22.179Z,28.90
2023-03-02T10:23:57.798Z,28.55
2023-03-02T10:26:33.239Z,28.27
2023-03-02T10:29:12.189Z,26.35
2023-03-02T10:31:46.262Z,26.25
2023-03-02T10:34:22.820Z,30.70
2023-03-02T10:36:57.174Z,30.80
2023-03-02T10:39:30.320Z,26.17
2023-03-02T10:42:04.078Z,27.10
2023-03-02T10:44:38.142Z,24.80
2023-03-02T10:47:20.295Z,26.90
2023-03-02T10:49:52.287Z,28.55
2023-03-02T10:52:24.455Z,24.82
2023-03-02T10:55:04.789Z,29.57
2023-03-02T10:57:39.474Z,25.95
2023-03-02T11:00:18.506Z,25.25
2023-03-02T11:02:56.310Z,25.85
2023-03-02T11:05:32.280Z,26.05
2023-03-02T11:08:04.880Z,28.45
2023-03-02T11:10:37.195Z,23.47
2023-03-02T11:13:20.843Z,28.80
2023-03-02T11:15:53.849Z,24.35
2023-03-02T11:18:27.537Z,26.40
2023-03-02T11:21:00.593Z,24.97
2023-03-02T11:23:38.045Z,25.10
2023-03-02T11:26:13.771Z,26.40
2023-03-02T11:28:48.037Z,22.75
2023-03-02T11:31:34.077Z,25.65
2023-03-02T11:34:17.942Z,26.00
2023-03-02T11:37:00.103Z,29.93
2023-03-02T11:39:46.449Z,26.75
2023-03-02T11:42:40.996Z,27.00
2023-03-02T11:45:28.718Z,24.63
2023-03-02T11:48:04.003Z,28.23
2023-03-02T11:50:37.508Z,24.73
2023-03-02T11:53:13.384Z,25.80
2023-03-02T11:55:48.801Z,26.20
2023-03-02T11:58:20.931Z,27.25
2023-03-02T12:00:54.827Z,27.65
2023-03-02T12:03:38.124Z,23.53
2023-03-02T12:06:25.770Z,27.53
2023-03-02T12:09:08.478Z,25.05
2023-03-02T12:11:41.072Z,27.10
2023-03-02T12:14:25.532Z,28.37
2023-03-02T12:17:06.779Z,24.03
2023-03-02T12:19:45.566Z,24.20
2023-03-02T12:22:27.473Z,22.40
2023-03-02T12:25:04.024Z,21.37
2023-03-02T12:27:40.055Z,24.95
2023-03-02T12:30:15.295Z,22.17
2023-03-02T12:32:48.496Z,22.93
2023-03-02T12:35:21.852Z,22.47
2023-03-02T12:37:57.492Z,21.60
2023-03-02T12:40:34.568Z,22.50
2023-03-02T12:43:25.508Z,21.97
2023-03-02T12:46:04.414Z,56.87
2023-03-02T12:48:40.342Z,26.43
2023-03-02T12:51:17.936Z,24.55
2023-03-02T12:53:49.327Z,21.90
2023-03-02T12:56:27.557Z,23.50
2023-03-02T12:58:58.928Z,24.03
2023-03-02T13:01:32.559Z,21.40
2023-03-02T13:04:03.653Z,21.40
2023-03-02T13:06:37.966Z,22.00
2023-03-02T13:09:15.447Z,24.27
2023-03-02T13:11:46.596Z,21.63
2023-03-02T13:14:22.251Z,27.93
2023-03-02T13:16:58.410Z,25.80
2023-03-02T13:19:32.276Z,25.53
2023-03-02T13:22:03.449Z,23.73
2023-03-02T13:24:37.822Z,23.73
2023-03-02T13:27:17.364Z,22.70
2023-03-02T13:29:49.513Z,21.70
2023-03-02T13:32:21.912Z,25.45
2023-03-02T13:34:53.981Z,21.02
2023-03-02T13:37:29.905Z,21.55
2023-03-02T13:40:01.764Z,25.47
2023-03-02T13:42:37.016Z,21.37
2023-03-02T13:45:15.521Z,24.80
2023-03-02T13:47:46.852Z,20.27
2023-03-02T13:50:21.618Z,21.50
2023-03-02T13:52:53.505Z,21.50
2023-03-02T13:55:25.252Z,21.35
2023-03-02T13:57:56.770Z,21.37
2023-03-02T14:00:29.115Z,21.20
2023-03-02T14:05:33.705Z,20.30
2023-03-02T14:08:07.141Z,22.10
2023-03-02T14:10:41.537Z,21.55
2023-03-02T14:13:15.291Z,20.10
2023-03-02T14:15:48.598Z,22.80
2023-03-02T14:18:27.773Z,19.30
2023-03-02T14:20:58.985Z,21.20
2023-03-02T14:23:30.232Z,22.63
2023-03-02T14:26:01.426Z,23.40
2023-03-02T14:28:36.142Z,21.10
2023-03-02T14:31:26.473Z,20.70
2023-03-02T14:34:03.647Z,21.45
2023-03-02T14:36:35.594Z,21.20
2023-03-02T14:39:36.467Z,21.02
2023-03-02T14:42:11.573Z,24.15
2023-03-02T14:44:42.539Z,26.20
2023-03-02T14:47:13.826Z,25.60
2023-03-02T14:49:45.050Z,26.40
2023-03-02T14:52:18.612Z,25.43
2023-03-02T14:54:51.767Z,25.80
2023-03-02T14:57:25.539Z,20.80
2023-03-02T15:00:00.206Z,24.70
2023-03-02T15:02:31.536Z,23.80
2023-03-02T15:05:02.521Z,26.50
2023-03-02T15:07:33.610Z,25.17
2023-03-02T15:10:05.009Z,26.75
2023-03-02T15:12:36.164Z,24.13
2023-03-02T15:15:08.017Z,20.15
2023-03-02T15:17:39.018Z,28.05
2023-03-02T15:20:15.323Z,25.20
2023-03-02T15:22:46.547Z,26.25
2023-03-02T15:25:17.769Z,26.20
2023-03-02T15:27:48.838Z,25.15
2023-03-02T15:30:20.504Z,27.40
2023-03-02T15:32:51.506Z,25.15
2023-03-02T15:35:22.720Z,28.77
2023-03-02T15:37:58.513Z,28.57
2023-03-02T15:40:29.618Z,27.87
2023-03-02T15:43:00.881Z,25.47
2023-03-02T15:45:31.909Z,25.13
2023-03-02T15:48:03.043Z,28.00
2023-03-02T15:50:34.130Z,23.93
2023-03-02T15:53:05.483Z,23.30
2023-03-02T15:55:36.525Z,24.65
2023-03-02T15:58:08.711Z,26.10
2023-03-02T16:03:10.344Z,29.15
2023-03-02T16:05:41.714Z,26.37
2023-03-02T16:08:12.850Z,28.97
2023-03-02T16:11:01.396Z,34.47
2023-03-02T16:13:50.512Z,30.60
2023-03-02T16:19:13.044Z,29.90
2023-03-02T16:21:44.103Z,30.00
2023-03-02T16:24:22.389Z,32.70
2023-03-02T16:29:41.304Z,30.20
2023-03-02T16:32:27.676Z,33.00
2023-03-02T16:34:58.958Z,30.75
2023-03-02T16:37:30.244Z,31.90
2023-03-02T16:40:01.244Z,30.35
2023-03-02T16:42:32.720Z,33.40
2023-03-02T16:45:03.749Z,35.13
2023-03-02T16:47:58.822Z,35.50
2023-03-02T16:50:29.951Z,35.40
2023-03-02T16:53:01.199Z,31.23
2023-03-02T16:55:32.247Z,33.35
2023-03-02T16:58:03.283Z,30.10
2023-03-02T17:00:34.316Z,33.25
2023-03-02T17:03:05.599Z,34.85
2023-03-02T17:05:36.829Z,30.90
2023-03-02T17:08:11.415Z,32.47
2023-03-02T17:10:42.564Z,27.90
2023-03-02T17:13:15.790Z,36.20
2023-03-02T17:15:55.064Z,30.80
2023-03-02T17:18:27.850Z,33.45
2023-03-02T17:21:00.362Z,35.45
2023-03-02T17:26:02.427Z,38.10
2023-03-02T17:28:33.612Z,43.00
2023-03-02T17:31:04.829Z,43.75
2023-03-02T17:33:36.246Z,44.30
2023-03-02T17:36:12.295Z,38.55
2023-03-02T17:38:43.410Z,44.15
2023-03-02T17:41:15.096Z,41.45
2023-03-02T17:44:12.123Z,49.25
2023-03-02T17:46:45.617Z,36.85
2023-03-02T17:49:16.729Z,41.20
2023-03-02T17:51:47.879Z,45.95
2023-03-02T17:54:19.021Z,40.90
2023-03-02T17:56:50.188Z,41.10
2023-03-02T17:59:21.302Z,50.07
2023-03-02T18:01:52.407Z,46.07
2023-03-02T18:04:23.717Z,48.80
2023-03-02T18:06:55.036Z,50.37
2023-03-02T18:09:26.114Z,52.70
2023-03-02T18:12:03.542Z,57.25
2023-03-02T18:14:42.895Z,61.45
2023-03-02T18:17:20.226Z,55.95
2023-03-02T18:19:51.370Z,52.00
2023-03-02T18:22:30.659Z,48.80
2023-03-02T18:25:01.796Z,49.50
2023-03-02T18:27:33.176Z,50.27
2023-03-02T18:30:04.578Z,48.25
2023-03-02T18:32:35.999Z,47.80
2023-03-02T18:35:07.766Z,43.23
2023-03-02T18:37:39.208Z,42.85
2023-03-02T18:40:12.761Z,38.92
2023-03-02T18:42:44.033Z,34.20
2023-03-02T18:45:19.393Z,36.00
2023-03-02T18:47:51.074Z,35.27
2023-03-02T18:50:22.801Z,38.25
2023-03-02T18:52:54.214Z,34.58
2023-03-02T18:55:26.047Z,34.67
2023-03-02T18:57:57.284Z,32.60
2023-03-02T19:00:29.367Z,33.85
2023-03-02T19:03:00.544Z,34.85
2023-03-02T19:05:31.756Z,38.77
2023-03-02T19:08:04.067Z,35.40
2023-03-02T19:10:36.336Z,37.43
2023-03-02T19:13:09.578Z,34.95
2023-03-02T19:15:41.983Z,34.60
2023-03-02T19:20:42.343Z,38.30
2023-03-02T19:23:13.814Z,37.15
2023-03-02T19:25:45.749Z,37.70
2023-03-02T19:28:24.393Z,35.25
2023-03-02T19:30:55.585Z,37.45
2023-03-02T19:33:27.500Z,35.43
2023-03-02T19:35:58.591Z,36.55
2023-03-02T19:38:30.139Z,35.25
2023-03-02T19:41:02.218Z,33.40
2023-03-02T19:43:33.467Z,34.83
2023-03-02T19:46:05.127Z,35.20
2023-03-02T19:48:36.625Z,34.88
2023-03-02T19:51:09.233Z,32.43
2023-03-02T19:53:41.502Z,36.55
2023-03-02T19:56:14.568Z,33.45
2023-03-02T19:58:50.183Z,32.73
2023-03-02T20:01:25.163Z,33.07
2023-03-02T20:03:59.345Z,35.37
2023-03-02T20:06:31.957Z,32.85
2023-03-02T20:09:05.346Z,37.17
2023-03-02T20:11:38.405Z,37.27
2023-03-02T20:14:09.468Z,39.80
2023-03-02T20:16:40.580Z,37.55
2023-03-02T20:19:14.240Z,42.05
2023-03-02T20:25:33.988Z,43.00
2023-03-02T20:28:05.984Z,39.30
2023-03-02T20:30:38.643Z,42.85
2023-03-02T20:33:10.964Z,40.30
2023-03-02T20:35:44.541Z,40.43
2023-03-02T20:38:23.842Z,43.00
2023-03-02T20:40:55.045Z,46.85
2023-03-02T20:43:26.630Z,43.75
2023-03-02T20:45:58.608Z,44.53
2023-03-02T20:48:29.842Z,45.35
2023-03-02T20:51:01.770Z,45.40
2023-03-02T20:53:32.799Z,42.17
2023-03-02T20:56:04.489Z,43.25
2023-03-02T20:58:37.448Z,44.33
2023-03-02T21:01:08.901Z,40.50
2023-03-02T21:03:40.440Z,44.93
2023-03-02T21:06:12.045Z,47.85
2023-03-02T21:08:43.268Z,43.80
2023-03-02T21:11:16.653Z,43.40
2023-03-02T21:13:48.154Z,43.15
2023-03-02T21:16:20.726Z,46.95
2023-03-02T21:21:29.700Z,40.55
2023-03-02T21:24:07.335Z,45.60
2023-03-02T21:26:38.719Z,43.13
2023-03-02T21:29:11.886Z,40.30
2023-03-02T21:31:44.082Z,41.25
2023-03-02T21:36:45.290Z,44.80
2023-03-02T21:39:18.756Z,41.60
2023-03-02T21:41:50.177Z,43.70
2023-03-02T21:44:21.433Z,45.03
2023-03-02T21:46:52.722Z,44.03
2023-03-02T21:49:23.922Z,41.85
2023-03-02T21:51:54.957Z,40.45
2023-03-02T21:54:29.476Z,38.80
2023-03-02T21:57:02.045Z,39.80
2023-03-02T21:59:33.159Z,40.97
2023-03-02T22:02:07.479Z,40.17
2023-03-02T22:04:38.974Z,38.90
2023-03-02T22:07:10.097Z,40.00
2023-03-02T22:09:41.276Z,42.15
2023-03-02T22:12:15.323Z,35.45
2023-03-02T22:14:46.310Z,36.05
2023-03-02T22:17:19.744Z,36.60
2023-03-02T22:19:52.245Z,35.20
2023-03-02T22:22:27.108Z,37.67
2023-03-02T22:24:58.293Z,37.00
2023-03-02T22:27:30.502Z,35.65
2023-03-02T22:30:03.677Z,36.10
2023-03-02T22:32:37.437Z,36.10
2023-03-02T22:35:21.311Z,38.25
2023-03-02T22:37:53.233Z,35.83
2023-03-02T22:40:30.253Z,35.85
2023-03-02T22:43:11.601Z,33.80
2023-03-02T22:45:43.461Z,37.15
2023-03-02T22:48:17.324Z,32.45
2023-03-02T22:50:49.879Z,32.87
2023-03-02T22:53:29.621Z,34.60
2023-03-02T22:56:02.212Z,33.50
2023-03-02T22:58:42.784Z,33.13
2023-03-02T23:01:20.483Z,33.55
2023-03-02T23:03:53.215Z,34.75
2023-03-02T23:06:29.863Z,33.33
2023-03-02T23:09:04.676Z,35.37
2023-03-02T23:11:38.879Z,33.80
2023-03-02T23:14:15.433Z,33.65
2023-03-02T23:16:50.107Z,34.20
2023-03-02T23:19:21.413Z,32.35
2023-03-02T23:21:55.541Z,33.50
2023-03-02T23:24:29.992Z,35.33
2023-03-02T23:27:03.520Z,34.25
2023-03-02T23:29:35.603Z,32.15
2023-03-02T23:32:06.940Z,33.85
2023-03-02T23:34:38.300Z,31.03
2023-03-02T23:37:09.587Z,34.30
2023-03-02T23:39:40.810Z,34.17
2023-03-02T23:42:12.735Z,34.15
2023-03-02T23:44:43.755Z,32.33
2023-03-02T23:47:14.953Z,32.35
2023-03-02T23:49:45.982Z,30.85
2023-03-02T23:52:17.132Z,32.17
2023-03-02T23:54:48.263Z,35.05
2023-03-02T23:57:19.296Z,30.85
2023-03-02T23:59:50.471Z,34.55
